sensor_id;sensor_type;location;lat;lon;timestamp;pressure;altitude;pressure_sealevel;temperature;humidity
21706;BME280;11014;53.076;18.208;2022-11-20T00:00:09;100926.81;;;4.45;61.45
21706;BME280;11014;53.076;18.208;2022-11-20T00:02:58;100926.97;;;4.43;60.99
21706;BME280;11014;53.076;18.208;2022-11-20T00:05:26;100920.66;;;4.44;61.30
21706;BME280;11014;53.076;18.208;2022-11-20T00:07:54;100923.94;;;4.46;61.47
21706;BME280;11014;53.076;18.208;2022-11-20T00:10:23;100917.81;;;4.46;61.23
21706;BME280;11014;53.076;18.208;2022-11-20T00:12:52;100919.66;;;4.45;61.26
21706;BME280;11014;53.076;18.208;2022-11-20T00:15:20;100918.63;;;4.46;61.56
21706;BME280;11014;53.076;18.208;2022-11-20T00:17:49;100916.59;;;4.48;61.19
21706;BME280;11014;53.076;18.208;2022-11-20T00:20:18;100923.41;;;4.51;61.24
21706;BME280;11014;53.076;18.208;2022-11-20T00:22:46;100928.53;;;4.52;61.34
21706;BME280;11014;53.076;18.208;2022-11-20T00:25:15;100935.97;;;4.57;61.18
21706;BME280;11014;53.076;18.208;2022-11-20T00:27:44;100942.13;;;4.57;61.39
21706;BME280;11014;53.076;18.208;2022-11-20T00:30:13;100938.47;;;4.58;61.50
21706;BME280;11014;53.076;18.208;2022-11-20T00:32:42;100936.44;;;4.60;61.18
21706;BME280;11014;53.076;18.208;2022-11-20T00:35:11;100931.75;;;4.62;61.28
21706;BME280;11014;53.076;18.208;2022-11-20T00:37:39;100936.81;;;4.72;61.09
21706;BME280;11014;53.076;18.208;2022-11-20T00:40:09;100937.06;;;4.62;61.22
21706;BME280;11014;53.076;18.208;2022-11-20T00:42:38;100932.78;;;4.61;61.39
21706;BME280;11014;53.076;18.208;2022-11-20T00:45:07;100925.16;;;4.58;61.40
21706;BME280;11014;53.076;18.208;2022-11-20T00:47:36;100921.19;;;4.54;61.41
21706;BME280;11014;53.076;18.208;2022-11-20T00:50:05;100932.22;;;4.51;61.21
21706;BME280;11014;53.076;18.208;2022-11-20T00:52:33;100929.75;;;4.50;61.62
21706;BME280;11014;53.076;18.208;2022-11-20T00:55:02;100928.91;;;4.49;61.56
21706;BME280;11014;53.076;18.208;2022-11-20T00:57:31;100937.88;;;4.48;61.67
21706;BME280;11014;53.076;18.208;2022-11-20T01:00:00;100936.25;;;4.47;61.49
21706;BME280;11014;53.076;18.208;2022-11-20T01:02:29;100935.22;;;4.48;61.44
21706;BME280;11014;53.076;18.208;2022-11-20T01:04:58;100938.56;;;4.50;61.43
21706;BME280;11014;53.076;18.208;2022-11-20T01:07:27;100940.84;;;4.53;61.57
21706;BME280;11014;53.076;18.208;2022-11-20T01:09:56;100937.16;;;4.54;61.59
21706;BME280;11014;53.076;18.208;2022-11-20T01:12:25;100931.84;;;4.54;61.68
21706;BME280;11014;53.076;18.208;2022-11-20T01:14:54;100932.22;;;4.51;61.54
21706;BME280;11014;53.076;18.208;2022-11-20T01:17:22;100933.03;;;4.52;61.51
21706;BME280;11014;53.076;18.208;2022-11-20T01:19:51;100931.22;;;4.52;61.63
21706;BME280;11014;53.076;18.208;2022-11-20T01:22:20;100922.88;;;4.55;61.37
21706;BME280;11014;53.076;18.208;2022-11-20T01:24:48;100919.16;;;4.56;61.64
21706;BME280;11014;53.076;18.208;2022-11-20T01:27:16;100915.50;;;4.57;61.22
21706;BME280;11014;53.076;18.208;2022-11-20T01:29:45;100914.88;;;4.55;61.59
21706;BME280;11014;53.076;18.208;2022-11-20T01:32:13;100921.84;;;4.56;61.50
21706;BME280;11014;53.076;18.208;2022-11-20T01:34:42;100920.84;;;4.57;61.39
21706;BME280;11014;53.076;18.208;2022-11-20T01:37:11;100925.78;;;4.60;61.48
21706;BME280;11014;53.076;18.208;2022-11-20T01:39:39;100927.44;;;4.61;61.53
21706;BME280;11014;53.076;18.208;2022-11-20T01:42:07;100933.41;;;4.63;61.29
21706;BME280;11014;53.076;18.208;2022-11-20T01:44:57;100930.38;;;4.66;61.50
21706;BME280;11014;53.076;18.208;2022-11-20T01:47:44;100926.69;;;4.67;61.49
21706;BME280;11014;53.076;18.208;2022-11-20T01:50:18;100926.69;;;4.67;61.23
21706;BME280;11014;53.076;18.208;2022-11-20T01:53:03;100920.75;;;4.65;61.10
21706;BME280;11014;53.076;18.208;2022-11-20T01:55:37;100918.44;;;4.62;61.09
21706;BME280;11014;53.076;18.208;2022-11-20T01:58:07;100924.59;;;4.63;61.36
21706;BME280;11014;53.076;18.208;2022-11-20T02:00:36;100915.16;;;4.60;61.18
21706;BME280;11014;53.076;18.208;2022-11-20T02:03:08;100919.16;;;4.56;61.52
21706;BME280;11014;53.076;18.208;2022-11-20T02:05:52;100920.56;;;4.52;61.36
21706;BME280;11014;53.076;18.208;2022-11-20T02:08:23;100917.06;;;4.52;61.23
21706;BME280;11014;53.076;18.208;2022-11-20T02:10:52;100908.25;;;4.51;61.45
21706;BME280;11014;53.076;18.208;2022-11-20T02:13:20;100905.97;;;4.48;61.23
21706;BME280;11014;53.076;18.208;2022-11-20T02:16:27;100908.63;;;4.48;61.40
21706;BME280;11014;53.076;18.208;2022-11-20T02:18:59;100909.28;;;4.50;61.54
21706;BME280;11014;53.076;18.208;2022-11-20T02:21:36;100905.59;;;4.51;61.31
21706;BME280;11014;53.076;18.208;2022-11-20T02:24:09;100903.59;;;4.53;61.55
21706;BME280;11014;53.076;18.208;2022-11-20T02:26:42;100902.56;;;4.54;61.41
21706;BME280;11014;53.076;18.208;2022-11-20T02:29:15;100903.03;;;4.58;61.49
21706;BME280;11014;53.076;18.208;2022-11-20T02:31:46;100903.22;;;4.56;61.14
21706;BME280;11014;53.076;18.208;2022-11-20T02:34:15;100898.72;;;4.57;61.31
21706;BME280;11014;53.076;18.208;2022-11-20T02:36:44;100893.75;;;4.54;61.15
21706;BME280;11014;53.076;18.208;2022-11-20T02:39:15;100894.59;;;4.54;61.47
21706;BME280;11014;53.076;18.208;2022-11-20T02:41:45;100894.97;;;4.51;61.05
21706;BME280;11014;53.076;18.208;2022-11-20T02:44:13;100884.69;;;4.48;61.31
21706;BME280;11014;53.076;18.208;2022-11-20T02:46:42;100887.09;;;4.43;61.15
21706;BME280;11014;53.076;18.208;2022-11-20T02:49:10;100887.09;;;4.43;61.54
21706;BME280;11014;53.076;18.208;2022-11-20T02:51:39;100896.09;;;4.42;61.38
21706;BME280;11014;53.076;18.208;2022-11-20T02:54:08;100893.44;;;4.42;61.62
21706;BME280;11014;53.076;18.208;2022-11-20T02:56:38;100889.09;;;4.41;61.72
21706;BME280;11014;53.076;18.208;2022-11-20T02:59:07;100897.72;;;4.43;61.73
21706;BME280;11014;53.076;18.208;2022-11-20T03:01:36;100903.88;;;4.44;61.47
21706;BME280;11014;53.076;18.208;2022-11-20T03:04:04;100902.69;;;4.46;61.49
21706;BME280;11014;53.076;18.208;2022-11-20T03:06:33;100905.97;;;4.48;61.54
21706;BME280;11014;53.076;18.208;2022-11-20T03:09:01;100900.66;;;4.48;61.54
21706;BME280;11014;53.076;18.208;2022-11-20T03:11:30;100898.66;;;4.50;61.53
21706;BME280;11014;53.076;18.208;2022-11-20T03:14:02;100896.00;;;4.50;61.52
21706;BME280;11014;53.076;18.208;2022-11-20T03:16:56;100893.75;;;4.54;61.46
21706;BME280;11014;53.076;18.208;2022-11-20T03:19:24;100897.53;;;4.59;61.49
21706;BME280;11014;53.076;18.208;2022-11-20T03:21:54;100889.19;;;4.62;61.52
21706;BME280;11014;53.076;18.208;2022-11-20T03:24:22;100893.88;;;4.60;61.48
21706;BME280;11014;53.076;18.208;2022-11-20T03:26:51;100901.47;;;4.63;61.43
21706;BME280;11014;53.076;18.208;2022-11-20T03:29:19;100895.97;;;4.65;61.37
21706;BME280;11014;53.076;18.208;2022-11-20T03:31:48;100887.19;;;4.64;61.31
21706;BME280;11014;53.076;18.208;2022-11-20T03:34:16;100888.81;;;4.65;61.73
21706;BME280;11014;53.076;18.208;2022-11-20T03:36:53;100881.66;;;4.66;61.66
21706;BME280;11014;53.076;18.208;2022-11-20T03:39:22;100891.09;;;4.68;61.71
21706;BME280;11014;53.076;18.208;2022-11-20T03:41:51;100891.31;;;4.67;61.51
21706;BME280;11014;53.076;18.208;2022-11-20T03:44:21;100894.13;;;4.65;61.62
21706;BME280;11014;53.076;18.208;2022-11-20T03:46:50;100894.13;;;4.65;61.37
21706;BME280;11014;53.076;18.208;2022-11-20T03:49:18;100899.28;;;4.67;61.66
21706;BME280;11014;53.076;18.208;2022-11-20T03:51:47;100890.47;;;4.66;61.49
21706;BME280;11014;53.076;18.208;2022-11-20T03:54:15;100894.75;;;4.67;61.73
21706;BME280;11014;53.076;18.208;2022-11-20T03:56:44;100893.13;;;4.66;61.35
21706;BME280;11014;53.076;18.208;2022-11-20T03:59:12;100896.44;;;4.68;61.62
21706;BME280;11014;53.076;18.208;2022-11-20T04:01:41;100896.78;;;4.65;61.70
21706;BME280;11014;53.076;18.208;2022-11-20T04:04:16;100890.22;;;4.61;61.28
21706;BME280;11014;53.076;18.208;2022-11-20T04:06:45;100895.53;;;4.61;61.40
21706;BME280;11014;53.076;18.208;2022-11-20T04:09:13;100893.03;;;4.60;61.59
21706;BME280;11014;53.076;18.208;2022-11-20T04:11:41;100897.88;;;4.56;61.34
21706;BME280;11014;53.076;18.208;2022-11-20T04:14:14;100889.66;;;4.51;61.68
21706;BME280;11014;53.076;18.208;2022-11-20T04:16:43;100892.50;;;4.50;61.41
21706;BME280;11014;53.076;18.208;2022-11-20T04:19:14;100890.78;;;4.42;61.73
21706;BME280;11014;53.076;18.208;2022-11-20T04:21:45;100887.44;;;4.40;61.64
21706;BME280;11014;53.076;18.208;2022-11-20T04:24:13;100885.88;;;4.46;61.81
21706;BME280;11014;53.076;18.208;2022-11-20T04:26:42;100882.69;;;4.50;61.43
21706;BME280;11014;53.076;18.208;2022-11-20T04:29:17;100874.88;;;4.49;61.47
21706;BME280;11014;53.076;18.208;2022-11-20T04:31:47;100881.03;;;4.49;61.21
21706;BME280;11014;53.076;18.208;2022-11-20T04:34:16;100875.72;;;4.49;61.23
21706;BME280;11014;53.076;18.208;2022-11-20T04:36:45;100879.19;;;4.50;61.37
21706;BME280;11014;53.076;18.208;2022-11-20T04:39:14;100861.59;;;4.49;61.28
21706;BME280;11014;53.076;18.208;2022-11-20T04:41:46;100874.06;;;4.48;61.42
21706;BME280;11014;53.076;18.208;2022-11-20T04:44:14;100866.72;;;4.50;61.57
21706;BME280;11014;53.076;18.208;2022-11-20T04:46:43;100871.28;;;4.56;61.44
21706;BME280;11014;53.076;18.208;2022-11-20T04:49:11;100857.81;;;4.58;61.53
21706;BME280;11014;53.076;18.208;2022-11-20T04:51:40;100860.66;;;4.56;61.23
21706;BME280;11014;53.076;18.208;2022-11-20T04:54:10;100865.97;;;4.56;61.49
21706;BME280;11014;53.076;18.208;2022-11-20T04:56:41;100870.28;;;4.57;61.47
21706;BME280;11014;53.076;18.208;2022-11-20T05:02:30;100863.59;;;4.61;61.13
21706;BME280;11014;53.076;18.208;2022-11-20T05:04:59;100858.00;;;4.56;61.35
21706;BME280;11014;53.076;18.208;2022-11-20T05:07:28;100856.34;;;4.55;61.33
21706;BME280;11014;53.076;18.208;2022-11-20T05:09:56;100852.50;;;4.58;61.21
21706;BME280;11014;53.076;18.208;2022-11-20T05:12:25;100850.41;;;4.53;61.19
21706;BME280;11014;53.076;18.208;2022-11-20T05:14:53;100859.38;;;4.52;61.50
21706;BME280;11014;53.076;18.208;2022-11-20T05:17:22;100851.78;;;4.49;61.47
21706;BME280;11014;53.076;18.208;2022-11-20T05:19:51;100848.66;;;4.46;61.32
21706;BME280;11014;53.076;18.208;2022-11-20T05:22:20;100854.81;;;4.46;61.70
21706;BME280;11014;53.076;18.208;2022-11-20T05:24:49;100845.81;;;4.47;61.36
21706;BME280;11014;53.076;18.208;2022-11-20T05:27:18;100848.47;;;4.47;61.48
21706;BME280;11014;53.076;18.208;2022-11-20T05:29:47;100851.16;;;4.47;61.66
21706;BME280;11014;53.076;18.208;2022-11-20T05:32:16;100839.03;;;4.45;61.54
21706;BME280;11014;53.076;18.208;2022-11-20T05:34:44;100852.06;;;4.40;61.45
21706;BME280;11014;53.076;18.208;2022-11-20T05:37:13;100862.50;;;4.41;61.60
21706;BME280;11014;53.076;18.208;2022-11-20T05:39:41;100858.19;;;4.40;61.70
21706;BME280;11014;53.076;18.208;2022-11-20T05:42:10;100858.56;;;4.37;61.58
21706;BME280;11014;53.076;18.208;2022-11-20T05:44:59;100859.59;;;4.36;61.67
21706;BME280;11014;53.076;18.208;2022-11-20T05:47:32;100854.63;;;4.33;61.71
21706;BME280;11014;53.076;18.208;2022-11-20T05:50:01;100859.13;;;4.33;61.64
21706;BME280;11014;53.076;18.208;2022-11-20T05:52:30;100856.66;;;4.31;62.01
21706;BME280;11014;53.076;18.208;2022-11-20T05:54:58;100850.50;;;4.31;61.90
21706;BME280;11014;53.076;18.208;2022-11-20T05:57:27;100855.00;;;4.30;61.86
21706;BME280;11014;53.076;18.208;2022-11-20T05:59:56;100858.66;;;4.29;61.89
21706;BME280;11014;53.076;18.208;2022-11-20T06:02:24;100858.22;;;4.26;61.98
21706;BME280;11014;53.076;18.208;2022-11-20T06:04:53;100855.91;;;4.23;62.17
21706;BME280;11014;53.076;18.208;2022-11-20T06:07:21;100862.06;;;4.23;62.09
21706;BME280;11014;53.076;18.208;2022-11-20T06:09:50;100852.78;;;4.19;62.33
21706;BME280;11014;53.076;18.208;2022-11-20T06:12:19;100869.09;;;4.16;62.24
21706;BME280;11014;53.076;18.208;2022-11-20T06:14:47;100867.09;;;4.18;62.12
21706;BME280;11014;53.076;18.208;2022-11-20T06:17:15;100867.91;;;4.18;62.54
21706;BME280;11014;53.076;18.208;2022-11-20T06:19:44;100863.78;;;4.16;62.53
21706;BME280;11014;53.076;18.208;2022-11-20T06:22:14;100862.53;;;4.12;62.42
21706;BME280;11014;53.076;18.208;2022-11-20T06:24:42;100855.19;;;4.14;62.46
21706;BME280;11014;53.076;18.208;2022-11-20T06:27:11;100857.84;;;4.14;62.59
21706;BME280;11014;53.076;18.208;2022-11-20T06:29:39;100859.09;;;4.18;62.61
21706;BME280;11014;53.076;18.208;2022-11-20T06:32:08;100863.44;;;4.19;62.44
21706;BME280;11014;53.076;18.208;2022-11-20T06:34:36;100864.06;;;4.21;62.71
21706;BME280;11014;53.076;18.208;2022-11-20T06:37:05;100857.75;;;4.22;62.74
21706;BME280;11014;53.076;18.208;2022-11-20T06:39:33;100851.59;;;4.22;62.40
21706;BME280;11014;53.076;18.208;2022-11-20T06:42:02;100850.34;;;4.17;62.79
21706;BME280;11014;53.076;18.208;2022-11-20T06:44:30;100849.97;;;4.21;62.64
21706;BME280;11014;53.076;18.208;2022-11-20T06:46:59;100849.97;;;4.21;62.74
21706;BME280;11014;53.076;18.208;2022-11-20T06:49:27;100854.63;;;4.18;62.64
21706;BME280;11014;53.076;18.208;2022-11-20T06:51:57;100847.56;;;4.11;62.78
21706;BME280;11014;53.076;18.208;2022-11-20T06:54:26;100856.38;;;4.11;62.92
21706;BME280;11014;53.076;18.208;2022-11-20T06:56:55;100847.00;;;4.15;62.89
21706;BME280;11014;53.076;18.208;2022-11-20T06:59:23;100856.75;;;4.23;62.95
21706;BME280;11014;53.076;18.208;2022-11-20T07:01:52;100845.44;;;4.21;63.03
21706;BME280;11014;53.076;18.208;2022-11-20T07:04:20;100854.09;;;4.23;62.95
21706;BME280;11014;53.076;18.208;2022-11-20T07:06:49;100855.72;;;4.24;62.86
21706;BME280;11014;53.076;18.208;2022-11-20T07:09:18;100861.50;;;4.28;62.74
21706;BME280;11014;53.076;18.208;2022-11-20T07:11:47;100851.69;;;4.28;62.62
21706;BME280;11014;53.076;18.208;2022-11-20T07:14:15;100847.66;;;4.32;62.65
21706;BME280;11014;53.076;18.208;2022-11-20T07:16:47;100846.09;;;4.38;62.59
21706;BME280;11014;53.076;18.208;2022-11-20T07:19:15;100841.44;;;4.40;62.61
21706;BME280;11014;53.076;18.208;2022-11-20T07:21:43;100849.00;;;4.43;62.50
21706;BME280;11014;53.076;18.208;2022-11-20T07:24:12;100842.53;;;4.45;62.74
21706;BME280;11014;53.076;18.208;2022-11-20T07:26:40;100842.97;;;4.49;62.58
21706;BME280;11014;53.076;18.208;2022-11-20T07:29:09;100844.78;;;4.48;62.63
21706;BME280;11014;53.076;18.208;2022-11-20T07:31:37;100847.09;;;4.51;62.45
21706;BME280;11014;53.076;18.208;2022-11-20T07:34:06;100844.06;;;4.54;62.12
21706;BME280;11014;53.076;18.208;2022-11-20T07:36:34;100842.69;;;4.58;62.41
21706;BME280;11014;53.076;18.208;2022-11-20T07:39:03;100843.94;;;4.62;61.98
21706;BME280;11014;53.076;18.208;2022-11-20T07:41:32;100839.91;;;4.66;62.02
21706;BME280;11014;53.076;18.208;2022-11-20T07:44:01;100840.91;;;4.65;61.94
21706;BME280;11014;53.076;18.208;2022-11-20T07:46:30;100835.59;;;4.65;61.74
21706;BME280;11014;53.076;18.208;2022-11-20T07:48:58;100837.88;;;4.68;61.93
21706;BME280;11014;53.076;18.208;2022-11-20T07:51:27;100840.34;;;4.70;61.96
21706;BME280;11014;53.076;18.208;2022-11-20T07:53:55;100828.91;;;4.69;61.72
21706;BME280;11014;53.076;18.208;2022-11-20T07:56:24;100832.44;;;4.76;61.78
21706;BME280;11014;53.076;18.208;2022-11-20T07:58:53;100829.06;;;4.83;61.72
21706;BME280;11014;53.076;18.208;2022-11-20T08:01:21;100837.28;;;4.88;61.46
21706;BME280;11014;53.076;18.208;2022-11-20T08:03:49;100838.03;;;4.82;61.63
21706;BME280;11014;53.076;18.208;2022-11-20T08:06:19;100833.34;;;4.84;61.50
21706;BME280;11014;53.076;18.208;2022-11-20T08:08:48;100825.81;;;4.87;61.25
21706;BME280;11014;53.076;18.208;2022-11-20T08:11:16;100826.72;;;4.94;61.51
21706;BME280;11014;53.076;18.208;2022-11-20T08:14:03;100830.19;;;4.95;61.01
21706;BME280;11014;53.076;18.208;2022-11-20T08:16:44;100826.34;;;4.97;61.17
21706;BME280;11014;53.076;18.208;2022-11-20T08:19:14;100825.94;;;5.00;61.03
21706;BME280;11014;53.076;18.208;2022-11-20T08:21:43;100832.09;;;5.01;61.27
21706;BME280;11014;53.076;18.208;2022-11-20T08:24:11;100825.94;;;5.00;60.92
21706;BME280;11014;53.076;18.208;2022-11-20T08:26:40;100825.78;;;5.02;60.86
21706;BME280;11014;53.076;18.208;2022-11-20T08:29:09;100827.59;;;5.01;60.75
21706;BME280;11014;53.076;18.208;2022-11-20T08:31:37;100823.75;;;5.04;60.87
21706;BME280;11014;53.076;18.208;2022-11-20T08:34:26;100814.63;;;5.13;60.74
21706;BME280;11014;53.076;18.208;2022-11-20T08:37:02;100823.50;;;5.20;60.62
21706;BME280;11014;53.076;18.208;2022-11-20T08:39:31;100816.41;;;5.27;60.54
21706;BME280;11014;53.076;18.208;2022-11-20T08:42:00;100817.28;;;5.34;60.58
21706;BME280;11014;53.076;18.208;2022-11-20T08:44:28;100812.81;;;5.41;60.48
21706;BME280;11014;53.076;18.208;2022-11-20T08:46:56;100813.72;;;5.48;60.06
21706;BME280;11014;53.076;18.208;2022-11-20T08:49:25;100808.41;;;5.55;60.13
21706;BME280;11014;53.076;18.208;2022-11-20T08:51:58;100818.97;;;5.63;59.91
21706;BME280;11014;53.076;18.208;2022-11-20T08:54:29;100806.56;;;5.55;59.59
21706;BME280;11014;53.076;18.208;2022-11-20T08:57:42;100796.97;;;5.54;59.55
21706;BME280;11014;53.076;18.208;2022-11-20T09:00:18;100803.09;;;5.55;59.59
21706;BME280;11014;53.076;18.208;2022-11-20T09:02:49;100805.94;;;5.53;59.60
21706;BME280;11014;53.076;18.208;2022-11-20T09:08:57;100795.31;;;5.53;59.39
21706;BME280;11014;53.076;18.208;2022-11-20T09:11:36;100798.19;;;5.58;59.17
21706;BME280;11014;53.076;18.208;2022-11-20T09:14:14;100795.78;;;5.63;59.22
21706;BME280;11014;53.076;18.208;2022-11-20T09:16:48;100795.78;;;5.63;59.09
21706;BME280;11014;53.076;18.208;2022-11-20T09:19:17;100788.00;;;5.62;58.96
21706;BME280;11014;53.076;18.208;2022-11-20T09:22:03;100788.00;;;5.62;58.92
21706;BME280;11014;53.076;18.208;2022-11-20T09:24:33;100788.44;;;5.65;59.07
21706;BME280;11014;53.076;18.208;2022-11-20T09:27:05;100786.38;;;5.67;58.94
21706;BME280;11014;53.076;18.208;2022-11-20T09:29:34;100787.44;;;5.73;58.83
21706;BME280;11014;53.076;18.208;2022-11-20T09:32:03;100784.44;;;5.82;58.73
21706;BME280;11014;53.076;18.208;2022-11-20T09:34:32;100782.47;;;5.91;58.87
21706;BME280;11014;53.076;18.208;2022-11-20T09:37:00;100781.69;;;5.97;58.68
21706;BME280;11014;53.076;18.208;2022-11-20T09:39:36;100775.59;;;6.10;58.52
21706;BME280;11014;53.076;18.208;2022-11-20T09:48:17;100781.41;;;6.26;57.94
21706;BME280;11014;53.076;18.208;2022-11-20T09:56:01;100775.09;;;6.34;57.96
21706;BME280;11014;53.076;18.208;2022-11-20T10:02:00;100781.03;;;6.29;57.31
21706;BME280;11014;53.076;18.208;2022-11-20T10:05:30;100780.19;;;6.22;57.29
21706;BME280;11014;53.076;18.208;2022-11-20T10:08:25;100773.19;;;6.15;57.30
21706;BME280;11014;53.076;18.208;2022-11-20T10:26:53;100765.31;;;6.07;57.09
21706;BME280;11014;53.076;18.208;2022-11-20T10:29:34;100760.41;;;6.04;57.05
21706;BME280;11014;53.076;18.208;2022-11-20T10:32:15;100752.78;;;6.01;57.18
21706;BME280;11014;53.076;18.208;2022-11-20T10:35:34;100746.19;;;5.96;57.03
21706;BME280;11014;53.076;18.208;2022-11-20T10:37:44;100750.94;;;6.01;57.21
21706;BME280;11014;53.076;18.208;2022-11-20T10:40:35;100742.75;;;6.03;57.12
21706;BME280;11014;53.076;18.208;2022-11-20T10:43:16;100748.13;;;6.09;56.92
21706;BME280;11014;53.076;18.208;2022-11-20T10:48:25;100751.03;;;6.21;57.05
21706;BME280;11014;53.076;18.208;2022-11-20T10:56:20;100738.72;;;6.20;56.67
21706;BME280;11014;53.076;18.208;2022-11-20T11:01:29;100746.47;;;6.08;56.91
21706;BME280;11014;53.076;18.208;2022-11-20T11:03:59;100739.06;;;6.04;56.96
21706;BME280;11014;53.076;18.208;2022-11-20T11:06:43;100749.91;;;5.95;57.05
21706;BME280;11014;53.076;18.208;2022-11-20T11:09:26;100741.91;;;5.95;57.15
21706;BME280;11014;53.076;18.208;2022-11-20T11:11:58;100736.19;;;6.05;57.07
21706;BME280;11014;53.076;18.208;2022-11-20T11:14:49;100740.56;;;6.19;57.18
21706;BME280;11014;53.076;18.208;2022-11-20T11:17:28;100751.06;;;6.27;56.77
21706;BME280;11014;53.076;18.208;2022-11-20T11:20:04;100744.47;;;6.23;56.83
21706;BME280;11014;53.076;18.208;2022-11-20T11:22:34;100743.66;;;6.23;56.98
21706;BME280;11014;53.076;18.208;2022-11-20T11:25:43;100739.97;;;6.24;57.03
21706;BME280;11014;53.076;18.208;2022-11-20T11:28:25;100739.13;;;6.23;56.78
21706;BME280;11014;53.076;18.208;2022-11-20T11:30:55;100739.56;;;6.27;56.58
21706;BME280;11014;53.076;18.208;2022-11-20T11:33:30;100744.47;;;6.17;56.49
21706;BME280;11014;53.076;18.208;2022-11-20T11:36:17;100733.75;;;6.10;56.87
21706;BME280;11014;53.076;18.208;2022-11-20T11:39:06;100739.09;;;6.10;56.88
21706;BME280;11014;53.076;18.208;2022-11-20T11:41:38;100736.22;;;6.12;57.13
21706;BME280;11014;53.076;18.208;2022-11-20T11:44:28;100736.22;;;6.12;57.14
21706;BME280;11014;53.076;18.208;2022-11-20T11:47:31;100742.13;;;6.07;57.13
21706;BME280;11014;53.076;18.208;2022-11-20T11:55:05;100731.47;;;6.07;56.98
21706;BME280;11014;53.076;18.208;2022-11-20T12:01:28;100724.34;;;6.14;56.93
21706;BME280;11014;53.076;18.208;2022-11-20T12:18:22;100712.44;;;6.17;56.64
21706;BME280;11014;53.076;18.208;2022-11-20T12:25:56;100702.03;;;6.28;56.93
21706;BME280;11014;53.076;18.208;2022-11-20T12:32:04;100687.50;;;6.44;57.14
21706;BME280;11014;53.076;18.208;2022-11-20T12:35:20;100686.28;;;6.53;57.32
21706;BME280;11014;53.076;18.208;2022-11-20T12:58:57;100670.72;;;6.76;57.24
21706;BME280;11014;53.076;18.208;2022-11-20T13:05:03;100658.19;;;6.83;57.39
21706;BME280;11014;53.076;18.208;2022-11-20T13:07:34;100659.22;;;6.76;57.32
21706;BME280;11014;53.076;18.208;2022-11-20T13:18:20;100645.63;;;6.64;57.46
21706;BME280;11014;53.076;18.208;2022-11-20T13:27:05;100633.75;;;6.60;57.83
21706;BME280;11014;53.076;18.208;2022-11-20T13:44:54;100632.28;;;6.51;57.95
21706;BME280;11014;53.076;18.208;2022-11-20T13:47:25;100629.00;;;6.36;57.75
21706;BME280;11014;53.076;18.208;2022-11-20T13:49:57;100636.16;;;6.29;58.20
21706;BME280;11014;53.076;18.208;2022-11-20T13:52:31;100627.50;;;6.14;58.41
21706;BME280;11014;53.076;18.208;2022-11-20T14:04:57;100623.34;;;5.91;58.41
21706;BME280;11014;53.076;18.208;2022-11-20T14:08:44;100618.81;;;5.85;58.60
21706;BME280;11014;53.076;18.208;2022-11-20T14:12:15;100613.81;;;5.76;58.57
21706;BME280;11014;53.076;18.208;2022-11-20T14:14:56;100610.13;;;5.70;58.84
21706;BME280;11014;53.076;18.208;2022-11-20T14:17:35;100605.53;;;5.58;58.78
21706;BME280;11014;53.076;18.208;2022-11-20T14:20:14;100610.44;;;5.54;59.34
21706;BME280;11014;53.076;18.208;2022-11-20T14:22:49;100602.25;;;5.56;58.96
21706;BME280;11014;53.076;18.208;2022-11-20T14:25:26;100608.03;;;5.66;59.07
21706;BME280;11014;53.076;18.208;2022-11-20T14:28:01;100607.22;;;5.65;58.87
21706;BME280;11014;53.076;18.208;2022-11-20T14:30:44;100620.56;;;5.65;58.74
21706;BME280;11014;53.076;18.208;2022-11-20T14:33:13;100613.78;;;5.69;58.70
21706;BME280;11014;53.076;18.208;2022-11-20T14:35:47;100619.28;;;5.61;58.46
21706;BME280;11014;53.076;18.208;2022-11-20T14:38:19;100612.06;;;5.55;58.50
21706;BME280;11014;53.076;18.208;2022-11-20T14:40:50;100615.41;;;5.57;58.67
21706;BME280;11014;53.076;18.208;2022-11-20T14:43:25;100617.00;;;5.58;58.99
21706;BME280;11014;53.076;18.208;2022-11-20T14:45:59;100606.13;;;5.53;58.81
21706;BME280;11014;53.076;18.208;2022-11-20T14:48:48;100610.84;;;5.51;59.08
21706;BME280;11014;53.076;18.208;2022-11-20T14:51:38;100608.56;;;5.48;58.97
21706;BME280;11014;53.076;18.208;2022-11-20T14:54:45;100613.28;;;5.46;58.84
21706;BME280;11014;53.076;18.208;2022-11-20T15:00:34;100594.16;;;5.36;58.95
21706;BME280;11014;53.076;18.208;2022-11-20T15:03:15;100599.66;;;5.28;58.96
21706;BME280;11014;53.076;18.208;2022-11-20T15:05:49;100594.09;;;5.23;58.99
21706;BME280;11014;53.076;18.208;2022-11-20T15:08:20;100586.50;;;5.20;59.06
21706;BME280;11014;53.076;18.208;2022-11-20T15:10:59;100592.44;;;5.22;59.28
21706;BME280;11014;53.076;18.208;2022-11-20T15:13:36;100587.53;;;5.19;58.89
21706;BME280;11014;53.076;18.208;2022-11-20T15:16:25;100584.44;;;5.15;59.04
21706;BME280;11014;53.076;18.208;2022-11-20T15:18:55;100588.31;;;5.13;58.88
21706;BME280;11014;53.076;18.208;2022-11-20T15:21:24;100592.38;;;5.09;58.95
21706;BME280;11014;53.076;18.208;2022-11-20T15:23:52;100592.56;;;5.07;59.19
21706;BME280;11014;53.076;18.208;2022-11-20T15:26:26;100581.94;;;5.07;59.18
21706;BME280;11014;53.076;18.208;2022-11-20T15:28:57;100578.44;;;5.07;59.17
21706;BME280;11014;53.076;18.208;2022-11-20T15:31:29;100583.13;;;5.05;59.17
21706;BME280;11014;53.076;18.208;2022-11-20T15:33:58;100576.78;;;5.06;59.45
21706;BME280;11014;53.076;18.208;2022-11-20T15:36:28;100573.88;;;5.01;59.43
21706;BME280;11014;53.076;18.208;2022-11-20T15:38:56;100577.75;;;4.98;59.43
21706;BME280;11014;53.076;18.208;2022-11-20T15:41:26;100581.41;;;4.91;59.54
21706;BME280;11014;53.076;18.208;2022-11-20T15:43:54;100573.41;;;4.91;59.41
21706;BME280;11014;53.076;18.208;2022-11-20T15:46:28;100570.75;;;4.91;59.30